sensor_id;sensor_type;location;lat;lon;timestamp;pressure;altitude;pressure_sealevel;temperature;humidity
12777;BME280;6452;41.572;23.732;2023-02-28T00:01:31;95709.03;;;9.11;nan
12777;BME280;6452;41.572;23.732;2023-02-28T00:03:58;95704.28;;;9.13;nan
12777;BME280;6452;41.572;23.732;2023-02-28T00:06:24;95705.91;;;9.02;nan
12777;BME280;6452;41.572;23.732;2023-02-28T00:08:51;95747.72;;;9.30;nan
12777;BME280;6452;41.572;23.732;2023-02-28T00:11:17;95760.59;;;9.21;nan
12777;BME280;6452;41.572;23.732;2023-02-28T00:13:45;95758.59;;;9.17;nan
12777;BME280;6452;41.572;23.732;2023-02-28T00:16:16;95714.81;;;8.96;nan
12777;BME280;6452;41.572;23.732;2023-02-28T00:18:43;95745.66;;;9.20;nan
12777;BME280;6452;41.572;23.732;2023-02-28T00:21:10;95672.47;;;8.78;nan
12777;BME280;6452;41.572;23.732;2023-02-28T00:23:36;95718.16;;;9.03;nan
12777;BME280;6452;41.572;23.732;2023-02-28T00:26:03;95754.44;;;9.21;nan
12777;BME280;6452;41.572;23.732;2023-02-28T00:28:29;95761.38;;;9.10;nan
12777;BME280;6452;41.572;23.732;2023-02-28T00:30:55;95751.44;;;9.17;nan
12777;BME280;6452;41.572;23.732;2023-02-28T00:33:22;95682.63;;;8.69;nan
12777;BME280;6452;41.572;23.732;2023-02-28T00:35:49;95710.78;;;8.93;nan
12777;BME280;6452;41.572;23.732;2023-02-28T00:38:15;95744.63;;;9.21;nan
12777;BME280;6452;41.572;23.732;2023-02-28T00:40:41;95716.47;;;8.85;nan
12777;BME280;6452;41.572;23.732;2023-02-28T00:43:08;95714.25;;;8.82;nan
12777;BME280;6452;41.572;23.732;2023-02-28T00:45:34;95707.91;;;8.83;nan
12777;BME280;6452;41.572;23.732;2023-02-28T00:48:01;95711.84;;;8.81;nan
12777;BME280;6452;41.572;23.732;2023-02-28T00:50:27;95732.03;;;8.93;nan
12777;BME280;6452;41.572;23.732;2023-02-28T00:52:54;95707.56;;;8.68;nan
12777;BME280;6452;41.572;23.732;2023-02-28T00:55:20;95707.13;;;8.71;nan
12777;BME280;6452;41.572;23.732;2023-02-28T00:57:47;95717.03;;;8.87;nan
12777;BME280;6452;41.572;23.732;2023-02-28T01:00:16;95745.69;;;8.85;nan
12777;BME280;6452;41.572;23.732;2023-02-28T01:02:43;95745.34;;;8.82;nan
12777;BME280;6452;41.572;23.732;2023-02-28T01:05:10;95759.69;;;8.92;nan
12777;BME280;6452;41.572;23.732;2023-02-28T01:07:36;95758.53;;;9.00;nan
12777;BME280;6452;41.572;23.732;2023-02-28T01:10:04;95702.13;;;8.40;nan
12777;BME280;6452;41.572;23.732;2023-02-28T01:12:30;95715.53;;;8.56;nan
12777;BME280;6452;41.572;23.732;2023-02-28T01:14:57;95748.44;;;8.67;nan
12777;BME280;6452;41.572;23.732;2023-02-28T01:17:23;95749.72;;;8.53;nan
12777;BME280;6452;41.572;23.732;2023-02-28T01:19:53;95663.63;;;8.07;nan
12777;BME280;6452;41.572;23.732;2023-02-28T01:22:20;95750.31;;;8.67;nan
12777;BME280;6452;41.572;23.732;2023-02-28T01:24:46;95675.06;;;8.19;nan
12777;BME280;6452;41.572;23.732;2023-02-28T01:27:13;95715.41;;;8.40;nan
12777;BME280;6452;41.572;23.732;2023-02-28T01:29:40;95775.25;;;8.54;nan
12777;BME280;6452;41.572;23.732;2023-02-28T01:32:07;95756.69;;;8.24;nan
12777;BME280;6452;41.572;23.732;2023-02-28T01:34:34;95729.44;;;8.29;nan
12777;BME280;6452;41.572;23.732;2023-02-28T01:37:00;95743.59;;;8.41;nan
12777;BME280;6452;41.572;23.732;2023-02-28T01:39:32;95730.16;;;8.36;nan
12777;BME280;6452;41.572;23.732;2023-02-28T01:41:58;95768.66;;;8.68;nan
12777;BME280;6452;41.572;23.732;2023-02-28T01:47:34;95789.31;;;8.43;nan
12777;BME280;6452;41.572;23.732;2023-02-28T01:50:06;95785.94;;;8.36;nan
12777;BME280;6452;41.572;23.732;2023-02-28T01:52:34;95741.38;;;8.38;nan
12777;BME280;6452;41.572;23.732;2023-02-28T01:55:02;95791.00;;;8.79;nan
12777;BME280;6452;41.572;23.732;2023-02-28T01:57:37;95787.03;;;8.81;nan
12777;BME280;6452;41.572;23.732;2023-02-28T02:00:11;95786.47;;;8.91;nan
12777;BME280;6452;41.572;23.732;2023-02-28T02:02:43;95797.34;;;8.89;nan
12777;BME280;6452;41.572;23.732;2023-02-28T02:05:14;95796.63;;;8.82;nan
12777;BME280;6452;41.572;23.732;2023-02-28T02:07:43;95755.97;;;8.29;nan
12777;BME280;6452;41.572;23.732;2023-02-28T02:10:15;95794.38;;;8.44;nan
12777;BME280;6452;41.572;23.732;2023-02-28T02:12:46;95802.63;;;8.54;nan
12777;BME280;6452;41.572;23.732;2023-02-28T02:15:24;95811.88;;;8.64;nan
12777;BME280;6452;41.572;23.732;2023-02-28T02:17:57;95810.09;;;8.57;nan
12777;BME280;6452;41.572;23.732;2023-02-28T02:37:15;95827.28;;;8.13;nan
12777;BME280;6452;41.572;23.732;2023-02-28T02:39:36;95834.66;;;8.11;nan
12777;BME280;6452;41.572;23.732;2023-02-28T02:42:13;95828.44;;;8.17;nan
12777;BME280;6452;41.572;23.732;2023-02-28T02:44:47;95817.22;;;8.34;nan
12777;BME280;6452;41.572;23.732;2023-02-28T02:47:16;95780.34;;;8.26;nan
12777;BME280;6452;41.572;23.732;2023-02-28T02:49:51;95827.88;;;8.45;nan
12777;BME280;6452;41.572;23.732;2023-02-28T02:52:22;95813.53;;;8.35;nan
12777;BME280;6452;41.572;23.732;2023-02-28T02:54:50;95833.41;;;8.44;nan
12777;BME280;6452;41.572;23.732;2023-02-28T02:57:30;95790.38;;;8.23;nan
12777;BME280;6452;41.572;23.732;2023-02-28T02:59:59;95779.03;;;8.16;nan
12777;BME280;6452;41.572;23.732;2023-02-28T03:02:27;95818.28;;;8.44;nan
12777;BME280;6452;41.572;23.732;2023-02-28T03:05:09;95780.13;;;8.27;nan
12777;BME280;6452;41.572;23.732;2023-02-28T03:07:38;95791.13;;;8.31;nan
12777;BME280;6452;41.572;23.732;2023-02-28T03:10:48;95793.16;;;8.29;nan
12777;BME280;6452;41.572;23.732;2023-02-28T03:16:02;95848.25;;;8.63;nan
12777;BME280;6452;41.572;23.732;2023-02-28T03:23:42;95814.97;;;8.72;nan
12777;BME280;6452;41.572;23.732;2023-02-28T03:26:19;95808.19;;;8.76;nan
12777;BME280;6452;41.572;23.732;2023-02-28T03:29:15;95858.25;;;9.02;nan
12777;BME280;6452;41.572;23.732;2023-02-28T03:31:48;95804.03;;;8.80;nan
12777;BME280;6452;41.572;23.732;2023-02-28T03:34:22;95844.13;;;9.02;nan
12777;BME280;6452;41.572;23.732;2023-02-28T03:37:02;95848.78;;;9.07;nan
12777;BME280;6452;41.572;23.732;2023-02-28T03:39:42;95842.88;;;9.16;nan
12777;BME280;6452;41.572;23.732;2023-02-28T03:42:23;95850.63;;;9.18;nan
12777;BME280;6452;41.572;23.732;2023-02-28T03:44:58;95803.25;;;8.91;nan
12777;BME280;6452;41.572;23.732;2023-02-28T03:50:29;95862.06;;;9.18;nan
12777;BME280;6452;41.572;23.732;2023-02-28T03:53:06;95816.75;;;8.78;nan
12777;BME280;6452;41.572;23.732;2023-02-28T03:55:42;95852.00;;;8.85;nan
12777;BME280;6452;41.572;23.732;2023-02-28T03:58:22;95874.72;;;8.81;nan
12777;BME280;6452;41.572;23.732;2023-02-28T04:00:56;95815.19;;;8.59;nan
12777;BME280;6452;41.572;23.732;2023-02-28T04:03:25;95862.97;;;8.89;nan
12777;BME280;6452;41.572;23.732;2023-02-28T04:05:55;95863.56;;;9.02;nan
12777;BME280;6452;41.572;23.732;2023-02-28T04:08:23;95835.78;;;8.75;nan
12777;BME280;6452;41.572;23.732;2023-02-28T04:10:58;95879.13;;;8.87;nan
12777;BME280;6452;41.572;23.732;2023-02-28T04:13:27;95875.06;;;8.73;nan
12777;BME280;6452;41.572;23.732;2023-02-28T04:15:54;95832.28;;;8.51;nan
12777;BME280;6452;41.572;23.732;2023-02-28T04:18:20;95830.03;;;8.37;nan
12777;BME280;6452;41.572;23.732;2023-02-28T04:20:47;95838.41;;;8.52;nan
12777;BME280;6452;41.572;23.732;2023-02-28T04:23:14;95820.81;;;8.39;nan
12777;BME280;6452;41.572;23.732;2023-02-28T04:25:41;95860.25;;;8.54;nan
12777;BME280;6452;41.572;23.732;2023-02-28T04:28:12;95887.38;;;8.56;nan
12777;BME280;6452;41.572;23.732;2023-02-28T04:30:38;95884.59;;;8.51;nan
12777;BME280;6452;41.572;23.732;2023-02-28T04:33:05;95877.41;;;8.40;nan
12777;BME280;6452;41.572;23.732;2023-02-28T04:35:32;95875.56;;;8.40;nan
12777;BME280;6452;41.572;23.732;2023-02-28T04:37:58;95794.72;;;7.76;nan
12777;BME280;6452;41.572;23.732;2023-02-28T04:40:25;95843.56;;;8.17;nan
12777;BME280;6452;41.572;23.732;2023-02-28T04:42:52;95881.94;;;8.51;nan
12777;BME280;6452;41.572;23.732;2023-02-28T04:45:19;95839.19;;;8.22;nan
12777;BME280;6452;41.572;23.732;2023-02-28T04:47:49;95847.44;;;8.03;nan
12777;BME280;6452;41.572;23.732;2023-02-28T04:50:16;95869.88;;;8.37;nan
12777;BME280;6452;41.572;23.732;2023-02-28T04:52:43;95897.41;;;8.54;nan
12777;BME280;6452;41.572;23.732;2023-02-28T04:55:10;95865.16;;;8.39;nan
12777;BME280;6452;41.572;23.732;2023-02-28T04:57:37;95899.47;;;8.52;nan
12777;BME280;6452;41.572;23.732;2023-02-28T05:00:05;95886.53;;;8.44;nan
12777;BME280;6452;41.572;23.732;2023-02-28T05:02:51;95851.75;;;8.34;nan
12777;BME280;6452;41.572;23.732;2023-02-28T05:05:18;95853.94;;;8.37;nan
12777;BME280;6452;41.572;23.732;2023-02-28T05:07:44;95895.34;;;8.56;nan
12777;BME280;6452;41.572;23.732;2023-02-28T05:10:11;95860.16;;;8.31;nan
12777;BME280;6452;41.572;23.732;2023-02-28T05:12:38;95854.19;;;8.35;nan
12777;BME280;6452;41.572;23.732;2023-02-28T05:15:07;95909.16;;;8.76;nan
12777;BME280;6452;41.572;23.732;2023-02-28T05:17:35;95896.47;;;8.78;nan
12777;BME280;6452;41.572;23.732;2023-02-28T05:20:03;95897.03;;;8.80;nan
12777;BME280;6452;41.572;23.732;2023-02-28T05:22:31;95894.53;;;8.85;nan
12777;BME280;6452;41.572;23.732;2023-02-28T05:24:58;95894.28;;;8.87;nan
12777;BME280;6452;41.572;23.732;2023-02-28T05:27:28;95892.91;;;8.84;nan
12777;BME280;6452;41.572;23.732;2023-02-28T05:29:55;95909.88;;;8.95;nan
12777;BME280;6452;41.572;23.732;2023-02-28T05:32:22;95918.78;;;9.00;nan
12777;BME280;6452;41.572;23.732;2023-02-28T05:34:48;95868.38;;;8.82;nan
12777;BME280;6452;41.572;23.732;2023-02-28T05:37:15;95905.16;;;9.09;nan
12777;BME280;6452;41.572;23.732;2023-02-28T05:39:42;95869.41;;;8.81;nan
12777;BME280;6452;41.572;23.732;2023-02-28T05:42:08;95861.81;;;8.85;nan
12777;BME280;6452;41.572;23.732;2023-02-28T05:44:35;95832.78;;;8.72;nan
12777;BME280;6452;41.572;23.732;2023-02-28T05:47:01;95877.31;;;9.11;nan
12777;BME280;6452;41.572;23.732;2023-02-28T05:49:28;95874.22;;;9.26;nan
12777;BME280;6452;41.572;23.732;2023-02-28T05:51:59;95844.50;;;9.06;nan
12777;BME280;6452;41.572;23.732;2023-02-28T05:54:25;95845.19;;;9.01;nan
12777;BME280;6452;41.572;23.732;2023-02-28T05:56:52;95924.88;;;9.54;nan
12777;BME280;6452;41.572;23.732;2023-02-28T05:59:18;95915.50;;;9.52;nan
12777;BME280;6452;41.572;23.732;2023-02-28T06:01:45;95936.00;;;9.63;nan
12777;BME280;6452;41.572;23.732;2023-02-28T06:04:15;95891.00;;;9.50;nan
12777;BME280;6452;41.572;23.732;2023-02-28T06:06:44;95893.53;;;9.45;nan
12777;BME280;6452;41.572;23.732;2023-02-28T06:09:11;95915.50;;;9.63;nan
12777;BME280;6452;41.572;23.732;2023-02-28T06:11:38;95933.22;;;9.69;nan
12777;BME280;6452;41.572;23.732;2023-02-28T06:14:12;95901.75;;;9.55;nan
12777;BME280;6452;41.572;23.732;2023-02-28T06:16:44;95912.03;;;9.74;nan
12777;BME280;6452;41.572;23.732;2023-02-28T06:19:10;95946.84;;;10.08;nan
12777;BME280;6452;41.572;23.732;2023-02-28T06:21:41;95949.13;;;10.04;nan
12777;BME280;6452;41.572;23.732;2023-02-28T06:24:08;95900.69;;;9.56;nan
12777;BME280;6452;41.572;23.732;2023-02-28T06:26:34;95960.25;;;9.66;nan
12777;BME280;6452;41.572;23.732;2023-02-28T06:29:00;95870.88;;;9.07;nan
12777;BME280;6452;41.572;23.732;2023-02-28T06:31:26;95948.34;;;9.46;nan
12777;BME280;6452;41.572;23.732;2023-02-28T06:33:55;95952.97;;;9.38;nan
12777;BME280;6452;41.572;23.732;2023-02-28T06:36:22;95901.81;;;8.60;nan
12777;BME280;6452;41.572;23.732;2023-02-28T06:38:48;95946.34;;;9.06;nan
12777;BME280;6452;41.572;23.732;2023-02-28T06:41:22;95955.41;;;9.28;nan
12777;BME280;6452;41.572;23.732;2023-02-28T06:43:49;95950.69;;;9.00;nan
12777;BME280;6452;41.572;23.732;2023-02-28T06:46:16;95954.94;;;8.90;nan
12777;BME280;6452;41.572;23.732;2023-02-28T06:48:43;95959.19;;;9.21;nan
12777;BME280;6452;41.572;23.732;2023-02-28T06:51:15;95955.25;;;9.12;nan
12777;BME280;6452;41.572;23.732;2023-02-28T06:53:42;95963.50;;;9.45;nan
12777;BME280;6452;41.572;23.732;2023-02-28T06:56:11;95915.41;;;9.35;nan
12777;BME280;6452;41.572;23.732;2023-02-28T06:58:38;95907.53;;;9.40;nan
12777;BME280;6452;41.572;23.732;2023-02-28T07:01:06;95961.91;;;9.79;nan
12777;BME280;6452;41.572;23.732;2023-02-28T07:03:32;95951.59;;;9.83;nan
12777;BME280;6452;41.572;23.732;2023-02-28T07:05:59;95963.50;;;9.68;nan
12777;BME280;6452;41.572;23.732;2023-02-28T07:08:25;95907.63;;;9.68;nan
12777;BME280;6452;41.572;23.732;2023-02-28T07:10:56;95950.84;;;10.10;nan
12777;BME280;6452;41.572;23.732;2023-02-28T07:13:23;95935.50;;;10.01;nan
12777;BME280;6452;41.572;23.732;2023-02-28T07:16:05;95876.88;;;9.49;nan
12777;BME280;6452;41.572;23.732;2023-02-28T07:18:32;95950.53;;;10.07;nan
12777;BME280;6452;41.572;23.732;2023-02-28T07:21:02;95875.47;;;9.47;nan
12777;BME280;6452;41.572;23.732;2023-02-28T07:23:28;95913.41;;;9.65;nan
12777;BME280;6452;41.572;23.732;2023-02-28T07:25:55;95955.19;;;10.00;nan
12777;BME280;6452;41.572;23.732;2023-02-28T07:28:21;95906.81;;;9.79;nan
12777;BME280;6452;41.572;23.732;2023-02-28T07:30:48;95952.63;;;10.05;nan
12777;BME280;6452;41.572;23.732;2023-02-28T07:33:14;95963.03;;;10.18;nan
12777;BME280;6452;41.572;23.732;2023-02-28T07:35:41;95960.25;;;10.36;nan
12777;BME280;6452;41.572;23.732;2023-02-28T07:38:07;95960.69;;;10.33;nan
12777;BME280;6452;41.572;23.732;2023-02-28T07:40:37;95920.41;;;10.30;nan
12777;BME280;6452;41.572;23.732;2023-02-28T07:43:04;95953.38;;;10.40;nan
12777;BME280;6452;41.572;23.732;2023-02-28T07:45:34;95916.38;;;10.15;nan
12777;BME280;6452;41.572;23.732;2023-02-28T07:48:01;95959.28;;;10.42;nan
12777;BME280;6452;41.572;23.732;2023-02-28T07:50:28;95969.59;;;10.39;nan
12777;BME280;6452;41.572;23.732;2023-02-28T07:52:58;95936.00;;;10.38;nan
12777;BME280;6452;41.572;23.732;2023-02-28T07:55:25;95954.03;;;11.04;nan
12777;BME280;6452;41.572;23.732;2023-02-28T07:57:52;95934.63;;;10.92;nan
12777;BME280;6452;41.572;23.732;2023-02-28T08:00:19;95963.19;;;11.08;nan
12777;BME280;6452;41.572;23.732;2023-02-28T08:02:46;95970.91;;;11.21;nan
12777;BME280;6452;41.572;23.732;2023-02-28T08:05:13;95957.31;;;11.56;nan
12777;BME280;6452;41.572;23.732;2023-02-28T08:07:40;95959.69;;;11.86;nan
12777;BME280;6452;41.572;23.732;2023-02-28T08:10:08;95924.09;;;11.81;nan
12777;BME280;6452;41.572;23.732;2023-02-28T08:12:36;95924.78;;;11.93;nan
12777;BME280;6452;41.572;23.732;2023-02-28T08:15:03;95961.91;;;12.55;nan
12777;BME280;6452;41.572;23.732;2023-02-28T08:17:29;95956.88;;;12.36;nan
12777;BME280;6452;41.572;23.732;2023-02-28T08:19:59;95953.59;;;13.00;nan
12777;BME280;6452;41.572;23.732;2023-02-28T08:22:26;95923.06;;;13.22;nan
12777;BME280;6452;41.572;23.732;2023-02-28T08:24:53;95955.78;;;13.61;nan
12777;BME280;6452;41.572;23.732;2023-02-28T08:27:19;95964.59;;;13.99;nan
12777;BME280;6452;41.572;23.732;2023-02-28T08:29:46;95912.22;;;14.28;nan
12777;BME280;6452;41.572;23.732;2023-02-28T08:32:13;95953.56;;;15.15;nan
12777;BME280;6452;41.572;23.732;2023-02-28T08:34:40;95952.22;;;15.07;nan
12777;BME280;6452;41.572;23.732;2023-02-28T08:37:06;95957.53;;;14.87;nan
12777;BME280;6452;41.572;23.732;2023-02-28T08:39:36;95909.94;;;14.00;nan
12777;BME280;6452;41.572;23.732;2023-02-28T08:42:03;95912.22;;;14.23;nan
12777;BME280;6452;41.572;23.732;2023-02-28T08:44:30;95944.63;;;14.74;nan
12777;BME280;6452;41.572;23.732;2023-02-28T08:46:56;95907.66;;;15.21;nan
12777;BME280;6452;41.572;23.732;2023-02-28T08:49:23;95943.88;;;16.30;nan
12777;BME280;6452;41.572;23.732;2023-02-28T08:51:50;95913.88;;;16.72;nan
12777;BME280;6452;41.572;23.732;2023-02-28T08:54:16;95939.34;;;17.73;nan
12777;BME280;6452;41.572;23.732;2023-02-28T08:56:48;95945.16;;;18.14;nan
12777;BME280;6452;41.572;23.732;2023-02-28T08:59:14;95950.41;;;18.29;nan
12777;BME280;6452;41.572;23.732;2023-02-28T09:01:41;95952.88;;;17.97;nan
12777;BME280;6452;41.572;23.732;2023-02-28T09:04:07;95939.84;;;17.36;nan
12777;BME280;6452;41.572;23.732;2023-02-28T09:06:39;95932.31;;;17.72;nan
12777;BME280;6452;41.572;23.732;2023-02-28T09:09:05;95922.59;;;18.05;nan
12777;BME280;6452;41.572;23.732;2023-02-28T09:11:34;95933.84;;;18.12;nan
12777;BME280;6452;41.572;23.732;2023-02-28T09:14:01;95923.81;;;17.89;nan
12777;BME280;6452;41.572;23.732;2023-02-28T09:16:31;95909.41;;;17.75;nan
12777;BME280;6452;41.572;23.732;2023-02-28T09:18:57;95850.56;;;17.82;nan
12777;BME280;6452;41.572;23.732;2023-02-28T09:21:27;95871.75;;;18.17;nan
12777;BME280;6452;41.572;23.732;2023-02-28T09:23:54;95922.44;;;18.20;nan
12777;BME280;6452;41.572;23.732;2023-02-28T09:26:23;95905.38;;;18.25;nan
12777;BME280;6452;41.572;23.732;2023-02-28T09:28:49;95899.72;;;18.26;nan
12777;BME280;6452;41.572;23.732;2023-02-28T09:31:19;95904.16;;;18.65;nan
12777;BME280;6452;41.572;23.732;2023-02-28T09:33:48;95916.84;;;18.64;nan
12777;BME280;6452;41.572;23.732;2023-02-28T09:36:15;95902.09;;;18.52;nan
12777;BME280;6452;41.572;23.732;2023-02-28T09:38:41;95905.44;;;17.96;nan
12777;BME280;6452;41.572;23.732;2023-02-28T09:41:19;95886.50;;;17.72;nan
12777;BME280;6452;41.572;23.732;2023-02-28T09:43:50;95888.44;;;16.99;nan
12777;BME280;6452;41.572;23.732;2023-02-28T09:46:36;95889.13;;;16.70;nan
12777;BME280;6452;41.572;23.732;2023-02-28T09:49:10;95901.94;;;16.24;nan
12777;BME280;6452;41.572;23.732;2023-02-28T09:52:02;95900.09;;;15.99;nan
12777;BME280;6452;41.572;23.732;2023-02-28T09:54:35;95897.50;;;15.64;nan
12777;BME280;6452;41.572;23.732;2023-02-28T10:04:59;95858.22;;;17.02;nan
12777;BME280;6452;41.572;23.732;2023-02-28T10:10:21;95859.13;;;18.13;nan
12777;BME280;6452;41.572;23.732;2023-02-28T10:12:54;95879.50;;;18.48;nan
12777;BME280;6452;41.572;23.732;2023-02-28T10:15:24;95875.19;;;18.23;nan
12777;BME280;6452;41.572;23.732;2023-02-28T10:17:55;95845.06;;;18.16;nan
12777;BME280;6452;41.572;23.732;2023-02-28T10:20:24;95848.53;;;18.64;nan
12777;BME280;6452;41.572;23.732;2023-02-28T10:25:35;95846.22;;;18.57;nan
12777;BME280;6452;41.572;23.732;2023-02-28T10:28:10;95842.59;;;18.19;nan
12777;BME280;6452;41.572;23.732;2023-02-28T10:30:41;95842.69;;;18.33;nan
12777;BME280;6452;41.572;23.732;2023-02-28T10:33:17;95838.84;;;18.39;nan
12777;BME280;6452;41.572;23.732;2023-02-28T10:35:45;95838.31;;;18.61;nan
12777;BME280;6452;41.572;23.732;2023-02-28T10:38:16;95848.19;;;18.47;nan
12777;BME280;6452;41.572;23.732;2023-02-28T10:40:42;95812.03;;;18.66;nan
12777;BME280;6452;41.572;23.732;2023-02-28T10:46:13;95768.97;;;18.38;nan
12777;BME280;6452;41.572;23.732;2023-02-28T10:49:15;95808.63;;;18.61;nan
12777;BME280;6452;41.572;23.732;2023-02-28T10:51:43;95792.25;;;18.52;nan
12777;BME280;6452;41.572;23.732;2023-02-28T10:54:27;95804.31;;;18.17;nan
12777;BME280;6452;41.572;23.732;2023-02-28T10:57:28;95803.03;;;18.33;nan
12777;BME280;6452;41.572;23.732;2023-02-28T11:00:15;95800.81;;;18.17;nan
12777;BME280;6452;41.572;23.732;2023-02-28T11:02:45;95797.78;;;17.76;nan
12777;BME280;6452;41.572;23.732;2023-02-28T11:05:35;95753.06;;;17.75;nan
12777;BME280;6452;41.572;23.732;2023-02-28T11:08:14;95791.59;;;17.75;nan
12777;BME280;6452;41.572;23.732;2023-02-28T11:10:45;95785.69;;;17.73;nan
12777;BME280;6452;41.572;23.732;2023-02-28T11:13:20;95769.63;;;17.34;nan
12777;BME280;6452;41.572;23.732;2023-02-28T11:15:55;95775.84;;;17.30;nan
12777;BME280;6452;41.572;23.732;2023-02-28T11:18:50;95769.56;;;17.10;nan
12777;BME280;6452;41.572;23.732;2023-02-28T11:21:27;95778.53;;;17.01;nan
12777;BME280;6452;41.572;23.732;2023-02-28T11:26:49;95771.81;;;16.64;nan
12777;BME280;6452;41.572;23.732;2023-02-28T11:29:24;95723.59;;;16.34;nan
12777;BME280;6452;41.572;23.732;2023-02-28T11:34:39;95752.50;;;16.52;nan
12777;BME280;6452;41.572;23.732;2023-02-28T11:37:13;95763.25;;;16.52;nan
12777;BME280;6452;41.572;23.732;2023-02-28T11:39:40;95762.06;;;16.29;nan
12777;BME280;6452;41.572;23.732;2023-02-28T11:42:11;95766.94;;;16.22;nan
12777;BME280;6452;41.572;23.732;2023-02-28T11:44:51;95721.97;;;15.89;nan
12777;BME280;6452;41.572;23.732;2023-02-28T11:47:32;95772.13;;;16.09;nan
12777;BME280;6452;41.572;23.732;2023-02-28T11:52:52;95764.19;;;15.83;nan
12777;BME280;6452;41.572;23.732;2023-02-28T12:12:20;95746.84;;;15.20;nan
12777;BME280;6452;41.572;23.732;2023-02-28T12:28:34;95747.59;;;14.04;nan
12777;BME280;6452;41.572;23.732;2023-02-28T12:31:23;95751.91;;;14.15;nan
12777;BME280;6452;41.572;23.732;2023-02-28T12:33:53;95752.94;;;14.04;nan
12777;BME280;6452;41.572;23.732;2023-02-28T12:36:22;95768.41;;;13.82;nan
12777;BME280;6452;41.572;23.732;2023-02-28T12:41:46;95720.47;;;13.18;nan
12777;BME280;6452;41.572;23.732;2023-02-28T12:44:34;95768.63;;;13.18;nan
12777;BME280;6452;41.572;23.732;2023-02-28T12:47:08;95758.59;;;13.03;nan
12777;BME280;6452;41.572;23.732;2023-02-28T12:50:07;95763.66;;;13.05;nan
12777;BME280;6452;41.572;23.732;2023-02-28T13:00:48;95763.69;;;12.68;nan
12777;BME280;6452;41.572;23.732;2023-02-28T13:11:54;95755.13;;;12.12;nan
12777;BME280;6452;41.572;23.732;2023-02-28T13:14:28;95760.78;;;12.16;nan
12777;BME280;6452;41.572;23.732;2023-02-28T13:19:59;95748.16;;;12.11;nan
12777;BME280;6452;41.572;23.732;2023-02-28T13:24:56;95759.41;;;12.13;nan
12777;BME280;6452;41.572;23.732;2023-02-28T13:27:35;95772.84;;;11.96;nan
12777;BME280;6452;41.572;23.732;2023-02-28T13:30:58;95718.09;;;11.72;nan
12777;BME280;6452;41.572;23.732;2023-02-28T13:36:08;95778.09;;;11.86;nan
12777;BME280;6452;41.572;23.732;2023-02-28T13:39:01;95763.00;;;11.75;nan
12777;BME280;6452;41.572;23.732;2023-02-28T13:46:37;95757.56;;;11.70;nan
12777;BME280;6452;41.572;23.732;2023-02-28T13:49:28;95764.06;;;11.74;nan
12777;BME280;6452;41.572;23.732;2023-02-28T13:52:10;95768.03;;;11.93;nan
12777;BME280;6452;41.572;23.732;2023-02-28T13:54:50;95767.41;;;11.86;nan
12777;BME280;6452;41.572;23.732;2023-02-28T14:05:19;95724.88;;;11.58;nan
12777;BME280;6452;41.572;23.732;2023-02-28T14:07:53;95754.16;;;11.96;nan
12777;BME280;6452;41.572;23.732;2023-02-28T14:10:36;95769.72;;;12.04;nan
12777;BME280;6452;41.572;23.732;2023-02-28T14:16:03;95765.63;;;11.97;nan
12777;BME280;6452;41.572;23.732;2023-02-28T14:18:51;95763.84;;;12.02;nan
12777;BME280;6452;41.572;23.732;2023-02-28T14:21:32;95693.84;;;11.52;nan
12777;BME280;6452;41.572;23.732;2023-02-28T14:32:11;95782.38;;;11.87;nan
12777;BME280;6452;41.572;23.732;2023-02-28T14:34:55;95783.91;;;11.83;nan
12777;BME280;6452;41.572;23.732;2023-02-28T14:37:39;95738.81;;;11.65;nan
12777;BME280;6452;41.572;23.732;2023-02-28T14:40:21;95777.03;;;11.87;nan
12777;BME280;6452;41.572;23.732;2023-02-28T14:43:03;95777.69;;;11.99;nan
12777;BME280;6452;41.572;23.732;2023-02-28T14:45:32;95746.00;;;11.81;nan
12777;BME280;6452;41.572;23.732;2023-02-28T14:47:59;95778.19;;;11.96;nan
12777;BME280;6452;41.572;23.732;2023-02-28T14:50:53;95789.00;;;12.06;nan
12777;BME280;6452;41.572;23.732;2023-02-28T14:53:24;95749.16;;;11.78;nan
12777;BME280;6452;41.572;23.732;2023-02-28T14:55:50;95750.25;;;11.82;nan
12777;BME280;6452;41.572;23.732;2023-02-28T14:58:25;95791.63;;;12.01;nan
12777;BME280;6452;41.572;23.732;2023-02-28T15:00:54;95795.28;;;11.95;nan
12777;BME280;6452;41.572;23.732;2023-02-28T15:08:18;95759.31;;;11.59;nan
12777;BME280;6452;41.572;23.732;2023-02-28T15:10:57;95802.06;;;11.81;nan
12777;BME280;6452;41.572;23.732;2023-02-28T15:13:42;95765.63;;;11.53;nan
12777;BME280;6452;41.572;23.732;2023-02-28T15:16:13;95810.91;;;11.65;nan
12777;BME280;6452;41.572;23.732;2023-02-28T15:21:26;95818.13;;;11.48;nan
12777;BME280;6452;41.572;23.732;2023-02-28T15:24:20;95814.66;;;11.47;nan
12777;BME280;6452;41.572;23.732;2023-02-28T15:27:00;95771.53;;;11.17;nan
12777;BME280;6452;41.572;23.732;2023-02-28T15:29:30;95824.88;;;11.33;nan
12777;BME280;6452;41.572;23.732;2023-02-28T15:32:04;95779.81;;;10.99;nan
12777;BME280;6452;41.572;23.732;2023-02-28T15:34:41;95818.31;;;11.24;nan
12777;BME280;6452;41.572;23.732;2023-02-28T15:40:17;95832.25;;;11.26;nan
12777;BME280;6452;41.572;23.732;2023-02-28T15:45:39;95824.66;;;11.18;nan
12777;BME280;6452;41.572;23.732;2023-02-28T15:48:18;95786.38;;;10.91;nan
12777;BME280;6452;41.572;23.732;2023-02-28T15:50:52;95799.47;;;10.92;nan
12777;BME280;6452;41.572;23.732;2023-02-28T15:54:05;95787.81;;;10.82;nan
12777;BME280;6452;41.572;23.732;2023-02-28T15:56:35;95824.19;;;11.05;nan
12777;BME280;6452;41.572;23.732;2023-02-28T15:59:06;95822.56;;;11.04;nan
12777;BME280;6452;41.572;23.732;2023-02-28T16:01:38;95832.81;;;10.95;nan
12777;BME280;6452;41.572;23.732;2023-02-28T16:04:13;95817.88;;;10.94;nan
12777;BME280;6452;41.572;23.732;2023-02-28T16:07:02;95803.81;;;10.82;nan
12777;BME280;6452;41.572;23.732;2023-02-28T16:09:26;95825.13;;;10.82;nan
12777;BME280;6452;41.572;23.732;2023-02-28T16:11:59;95812.84;;;10.81;nan
12777;BME280;6452;41.572;23.732;2023-02-28T16:14:28;95809.53;;;10.74;nan
12777;BME280;6452;41.572;23.732;2023-02-28T16:17:06;95783.06;;;10.50;nan
12777;BME280;6452;41.572;23.732;2023-02-28T16:19:34;95830.63;;;10.75;nan
12777;BME280;6452;41.572;23.732;2023-02-28T16:22:05;95799.03;;;10.50;nan